Time;durP1;ratioP1;P1;durP2;ratioP2;P2;SDS_P1;SDS_P2;PMS_P1;PMS_P2;Temp;Humidity;BMP_temperature;BMP_pressure;BME280_temperature;BME280_humidity;BME280_pressure;Samples;Min_cycle;Max_cycle;Signal;HPM_P1;HPM_P2
2022/06/29 00:01:50;;;;;;;7.85;4.85;;;;;;;15.31;74.31;93791.38;5092183;28;20035;-46
2022/06/29 00:04:18;;;;;;;5.72;5.10;;;;;;;15.15;74.75;93785.22;5092557;28;20032;-45
2022/06/29 00:06:44;;;;;;;6.05;5.55;;;;;;;15.29;74.41;93802.34;5092576;28;20493;-45
2022/06/29 00:09:09;;;;;;;10.57;4.90;;;;;;;15.05;75.16;93798.31;5092317;28;20027;-49
2022/06/29 00:11:35;;;;;;;11.45;5.40;;;;;;;15.13;75.21;93793.41;5092713;28;20158;-46
2022/06/29 00:14:00;;;;;;;8.10;4.93;;;;;;;15.28;75.00;93796.03;5092295;28;20020;-48
2022/06/29 00:16:26;;;;;;;6.45;5.47;;;;;;;15.45;74.25;93795.34;5095166;28;20035;-47
2022/06/29 00:18:51;;;;;;;6.55;4.97;;;;;;;15.42;74.05;93793.69;5112546;28;20044;-44
2022/06/29 00:21:17;;;;;;;5.18;4.55;;;;;;;15.37;74.20;93789.84;5112884;28;20107;-44
2022/06/29 00:23:42;;;;;;;6.40;4.85;;;;;;;15.12;75.31;93787.09;5112915;28;20015;-46
2022/06/29 00:26:07;;;;;;;9.93;5.20;;;;;;;15.20;75.04;93789.81;5112487;28;20016;-45
2022/06/29 00:28:33;;;;;;;16.23;5.20;;;;;;;15.23;73.93;93774.75;5112680;28;20107;-45
2022/06/29 00:30:58;;;;;;;6.05;4.78;;;;;;;15.11;74.45;93790.47;5112324;28;20513;-46
2022/06/29 00:33:24;;;;;;;6.00;4.50;;;;;;;15.18;73.89;93789.66;5112348;28;20023;-47
2022/06/29 00:35:49;;;;;;;6.13;4.78;;;;;;;15.00;74.86;93786.09;5112274;28;20039;-45
2022/06/29 00:38:15;;;;;;;4.72;4.32;;;;;;;14.97;74.91;93773.34;5112525;28;20012;-47
2022/06/29 00:40:40;;;;;;;5.75;4.97;;;;;;;15.06;74.98;93781.03;5112181;28;20020;-49
2022/06/29 00:43:06;;;;;;;6.32;5.40;;;;;;;14.84;75.67;93784.75;5112160;28;20034;-45
2022/06/29 00:45:32;;;;;;;8.93;5.40;;;;;;;15.06;75.13;93785.84;5112375;28;20022;-44
2022/06/29 00:47:57;;;;;;;11.13;5.75;;;;;;;14.81;75.94;93774.75;5095995;28;20031;-46
2022/06/29 00:50:25;;;;;;;7.80;5.15;;;;;;;14.81;75.21;93771.25;5091949;28;20047;-45
2022/06/29 00:52:51;;;;;;;6.13;5.03;;;;;;;14.73;75.04;93779.66;5090433;28;20107;-44
2022/06/29 00:55:18;;;;;;;6.78;5.13;;;;;;;14.70;75.67;93780.06;5091803;28;20440;-46
2022/06/29 00:57:44;;;;;;;11.48;5.15;;;;;;;14.63;75.26;93778.06;5091887;28;20389;-47
2022/06/29 01:00:10;;;;;;;9.32;4.50;;;;;;;14.62;75.84;93769.00;5091660;28;20016;-45
2022/06/29 01:02:36;;;;;;;9.20;4.80;;;;;;;14.59;75.66;93761.81;5091729;28;20031;-46
2022/06/29 01:05:04;;;;;;;7.15;4.35;;;;;;;14.69;75.28;93756.34;5091304;28;20028;-46
2022/06/29 01:07:31;;;;;;;7.07;4.50;;;;;;;14.74;75.46;93755.38;5091284;28;20081;-46
2022/06/29 01:09:56;;;;;;;9.30;4.90;;;;;;;14.86;74.62;93750.81;5090359;28;20020;-46
2022/06/29 01:12:22;;;;;;;5.30;4.43;;;;;;;14.93;73.66;93752.78;5091181;28;20408;-47
2022/06/29 01:14:49;;;;;;;5.07;4.57;;;;;;;14.68;74.33;93760.44;5090557;28;20023;-44
2022/06/29 01:17:15;;;;;;;6.93;4.63;;;;;;;14.54;75.05;93748.88;5101142;28;20020;-44
2022/06/29 01:19:41;;;;;;;5.38;4.50;;;;;;;14.51;75.53;93741.66;5111297;28;20042;-46
2022/06/29 01:22:14;;;;;;;5.82;5.20;;;;;;;14.41;76.31;93741.56;5111388;28;20405;-45
2022/06/29 01:24:41;;;;;;;5.80;5.10;;;;;;;14.39;76.15;93730.28;5111634;28;20024;-44
2022/06/29 01:27:06;;;;;;;6.30;4.40;;;;;;;14.58;75.54;93749.19;5111634;28;20089;-46
2022/06/29 01:29:32;;;;;;;8.52;5.18;;;;;;;14.55;74.48;93727.38;5111202;28;20198;-46
2022/06/29 01:31:58;;;;;;;4.85;4.35;;;;;;;14.45;75.58;93757.81;5111158;28;20122;-44
2022/06/29 01:34:25;;;;;;;7.55;5.60;;;;;;;14.29;77.02;93746.06;5111224;28;20077;-47
2022/06/29 01:36:51;;;;;;;11.20;6.70;;;;;;;14.29;75.55;93745.38;5111149;28;20027;-47
2022/06/29 01:39:17;;;;;;;7.00;5.88;;;;;;;13.91;77.86;93753.88;5111354;27;20011;-49
2022/06/29 01:41:43;;;;;;;9.52;6.10;;;;;;;13.90;77.02;93726.69;5111147;28;20027;-44
2022/06/29 01:44:08;;;;;;;8.00;6.25;;;;;;;13.81;78.36;93757.81;5095583;28;20113;-46
2022/06/29 01:46:34;;;;;;;8.68;5.65;;;;;;;13.81;78.79;93743.94;5090664;28;20032;-44
2022/06/29 01:48:59;;;;;;;6.22;5.68;;;;;;;13.81;78.31;93746.72;5090799;28;20020;-47
2022/06/29 01:51:25;;;;;;;6.10;5.50;;;;;;;13.96;77.75;93741.84;5090574;28;20428;-46
2022/06/29 01:53:50;;;;;;;6.47;5.70;;;;;;;13.97;77.87;93756.47;5090568;28;20020;-44
2022/06/29 01:56:16;;;;;;;7.82;5.57;;;;;;;13.99;77.69;93751.06;5090793;28;20023;-49
2022/06/29 01:58:41;;;;;;;6.75;5.53;;;;;;;14.00;78.25;93752.53;5090465;28;20019;-46
2022/06/29 02:01:07;;;;;;;12.77;6.00;;;;;;;14.08;77.85;93756.00;5090428;28;20024;-48
2022/06/29 02:03:32;;;;;;;6.20;5.60;;;;;;;13.91;78.19;93753.88;5089101;28;20073;-48
2022/06/29 02:05:58;;;;;;;7.50;5.57;;;;;;;13.87;78.53;93752.78;5090427;28;20065;-48
2022/06/29 02:08:23;;;;;;;11.70;5.50;;;;;;;13.86;77.73;93754.09;5090315;28;20024;-44
2022/06/29 02:10:49;;;;;;;10.25;5.40;;;;;;;13.77;78.23;93755.44;5090335;28;20023;-44
2022/06/29 02:13:14;;;;;;;7.43;4.95;;;;;;;14.00;76.76;93752.53;5090595;28;20028;-50
2022/06/29 02:15:40;;;;;;;5.68;5.07;;;;;;;13.79;77.63;93765.97;5090296;28;20020;-46
2022/06/29 02:18:05;;;;;;;7.60;5.95;;;;;;;13.95;77.13;93751.44;5106860;28;20048;-46
2022/06/29 02:20:31;;;;;;;9.10;5.88;;;;;;;13.78;77.94;93758.94;5110504;28;20055;-46
2022/06/29 02:22:56;;;;;;;7.50;5.53;;;;;;;13.81;78.40;93752.28;5110588;28;20080;-45
2022/06/29 02:25:21;;;;;;;6.55;5.85;;;;;;;13.36;79.87;93762.25;5112947;28;20027;-44
2022/06/29 02:27:47;;;;;;;8.20;6.32;;;;;;;13.50;78.59;93730.22;5114869;28;20084;-49
2022/06/29 02:30:13;;;;;;;9.82;5.95;;;;;;;13.65;78.82;93757.88;5115004;27;20053;-48
2022/06/29 02:35:24;;;;;;;9.38;6.28;;;;;;;13.63;79.17;93743.84;5115024;28;20504;-49
2022/06/29 02:37:49;;;;;;;9.80;6.45;;;;;;;13.65;79.40;93740.50;5114621;28;20015;-46
2022/06/29 02:40:15;;;;;;;12.10;6.22;;;;;;;13.59;79.43;93735.16;5100374;28;20512;-46
2022/06/29 02:42:40;;;;;;;10.10;7.18;;;;;;;13.59;79.74;93715.75;5094384;28;20032;-49
2022/06/29 02:45:06;;;;;;;10.43;7.28;;;;;;;13.45;80.35;93728.38;5094383;28;20051;-44
2022/06/29 02:47:32;;;;;;;9.25;7.47;;;;;;;13.52;79.55;93710.97;5094297;28;20099;-45
2022/06/29 02:49:57;;;;;;;10.35;6.68;;;;;;;13.46;79.43;93715.25;5094093;28;20557;-46
2022/06/29 02:52:23;;;;;;;7.47;5.70;;;;;;;13.33;79.53;93715.50;5093978;28;20107;-47
2022/06/29 02:54:48;;;;;;;9.25;5.60;;;;;;;13.43;79.26;93717.09;5093851;28;20035;-43
2022/06/29 02:57:14;;;;;;;6.93;5.60;;;;;;;13.28;80.27;93722.72;5093836;28;20035;-49
2022/06/29 02:59:39;;;;;;;10.65;6.85;;;;;;;13.39;80.29;93710.47;5093838;28;20024;-46
2022/06/29 03:02:04;;;;;;;7.85;5.57;;;;;;;13.28;80.46;93719.94;5093731;28;20020;-46
2022/06/29 03:04:31;;;;;;;6.40;5.75;;;;;;;13.43;79.86;93708.03;5093662;28;20020;-44
2022/06/29 03:06:56;;;;;;;7.47;5.60;;;;;;;13.33;80.28;93705.13;5093949;28;20028;-44
2022/06/29 03:09:22;;;;;;;8.43;6.07;;;;;;;13.44;79.16;93704.72;5093540;28;20127;-44
2022/06/29 03:11:47;;;;;;;7.85;5.88;;;;;;;13.50;79.24;93698.97;5093574;28;20027;-45
2022/06/29 03:14:13;;;;;;;5.47;4.93;;;;;;;13.28;80.11;93697.00;5093770;28;20027;-47
2022/06/29 03:16:38;;;;;;;7.00;5.90;;;;;;;13.38;79.66;93682.00;5098012;28;20480;-45
2022/06/29 03:19:03;;;;;;;9.90;6.22;;;;;;;13.41;79.80;93688.44;5113605;28;20050;-47
2022/06/29 03:21:29;;;;;;;8.82;7.55;;;;;;;13.53;78.91;93690.28;5112532;28;20035;-45
2022/06/29 03:23:54;;;;;;;12.55;8.43;;;;;;;13.55;79.50;93692.47;5113775;28;20027;-45
2022/06/29 03:26:20;;;;;;;8.82;7.70;;;;;;;13.63;79.75;93693.16;5113604;28;20027;-47
2022/06/29 03:28:45;;;;;;;15.95;8.93;;;;;;;13.53;80.12;93693.03;5113632;28;20037;-45
2022/06/29 03:31:11;;;;;;;10.50;6.78;;;;;;;13.52;79.58;93688.78;5113557;28;20034;-46
2022/06/29 03:33:36;;;;;;;8.98;6.65;;;;;;;13.39;79.69;93691.78;5113588;28;20032;-47
2022/06/29 03:36:02;;;;;;;6.85;6.15;;;;;;;13.47;79.05;93689.72;5102482;27;20028;-44
2022/06/29 03:38:27;;;;;;;7.20;5.60;;;;;;;13.55;78.86;93692.47;5093349;28;20417;-45
2022/06/29 03:40:53;;;;;;;7.20;5.93;;;;;;;13.51;79.07;93689.34;5093035;28;20479;-47
2022/06/29 03:43:18;;;;;;;13.68;6.75;;;;;;;13.54;78.90;93696.53;5092900;28;20065;-46
2022/06/29 03:45:44;;;;;;;7.47;6.50;;;;;;;13.56;79.67;93683.56;5092965;28;20024;-49
2022/06/29 03:48:09;;;;;;;7.97;6.45;;;;;;;13.51;79.81;93695.63;5092817;28;20137;-45
2022/06/29 03:50:35;;;;;;;8.93;6.80;;;;;;;13.65;79.69;93690.56;5093109;28;20028;-46
2022/06/29 03:53:00;;;;;;;10.75;7.45;;;;;;;13.60;79.68;93689.47;5092763;28;20505;-45
2022/06/29 03:55:26;;;;;;;7.57;6.82;;;;;;;13.36;81.68;93689.41;5093021;28;20059;-46
2022/06/29 03:57:51;;;;;;;7.57;6.78;;;;;;;13.26;81.40;93677.44;5092942;28;20032;-44
2022/06/29 04:00:17;;;;;;;9.80;6.68;;;;;;;13.49;81.36;93684.34;5092665;28;20023;-44
2022/06/29 04:02:43;;;;;;;7.20;6.50;;;;;;;13.46;81.95;93704.91;5092936;28;20039;-48
2022/06/29 04:05:09;;;;;;;9.73;7.20;;;;;;;13.58;81.96;93697.63;5092877;28;20476;-47
2022/06/29 04:07:35;;;;;;;8.23;5.93;;;;;;;13.69;82.26;93702.00;5092797;28;20027;-45
2022/06/29 04:10:01;;;;;;;6.47;5.88;;;;;;;13.85;82.10;93697.09;5092390;28;20414;-46
2022/06/29 04:12:28;;;;;;;7.75;5.75;;;;;;;13.89;82.25;93700.22;5091297;28;20034;-47
2022/06/29 04:14:54;;;;;;;7.03;6.43;;;;;;;13.91;79.62;93694.84;5092696;28;20408;-46
2022/06/29 04:17:19;;;;;;;5.47;4.97;;;;;;;13.90;79.41;93705.22;5106923;28;20103;-46
2022/06/29 04:19:44;;;;;;;5.93;5.22;;;;;;;13.87;79.30;93691.72;5112548;28;20536;-45
2022/06/29 04:22:10;;;;;;;7.57;6.75;;;;;;;13.88;79.62;93693.22;5112428;27;20489;-49
2022/06/29 04:24:35;;;;;;;9.63;6.03;;;;;;;13.99;79.96;93690.72;5111707;28;20039;-45
2022/06/29 04:27:01;;;;;;;11.35;7.00;;;;;;;13.94;80.85;93683.38;5112449;28;20027;-47
2022/06/29 04:29:26;;;;;;;7.78;6.20;;;;;;;13.96;81.67;93691.13;5112477;28;20045;-45
2022/06/29 04:31:52;;;;;;;6.85;6.05;;;;;;;13.93;82.81;93687.44;5105610;28;20511;-46
2022/06/29 04:34:17;;;;;;;12.70;6.93;;;;;;;14.08;82.41;93694.91;5092277;28;20078;-47
2022/06/29 04:36:43;;;;;;;7.28;6.57;;;;;;;14.08;83.32;93698.44;5092004;28;20028;-44
2022/06/29 04:39:08;;;;;;;6.38;5.78;;;;;;;14.15;83.85;93702.47;5091842;28;20047;-46
2022/06/29 04:41:34;;;;;;;6.28;5.35;;;;;;;14.32;83.07;93688.66;5091873;28;20024;-48
2022/06/29 04:43:59;;;;;;;6.95;6.25;;;;;;;14.33;83.48;93699.22;5091730;28;20024;-44
2022/06/29 04:46:25;;;;;;;8.10;7.00;;;;;;;14.55;83.30;93683.66;5091998;28;20028;-46
2022/06/29 04:48:58;;;;;;;9.85;7.57;;;;;;;14.48;83.84;93694.84;5090535;28;20039;-45
2022/06/29 04:51:25;;;;;;;9.15;7.53;;;;;;;14.65;83.53;93692.09;5091665;28;20115;-47
2022/06/29 04:53:54;;;;;;;10.50;7.70;;;;;;;14.55;84.96;93694.03;5091913;28;20054;-47
2022/06/29 04:56:20;;;;;;;11.93;7.47;;;;;;;14.68;85.31;93686.16;5091548;28;20085;-45
2022/06/29 04:58:46;;;;;;;10.30;8.80;;;;;;;14.63;87.01;93692.66;5091851;28;20458;-44
2022/06/29 05:01:11;;;;;;;12.10;7.88;;;;;;;14.67;88.53;93698.56;5091360;28;20117;-46
2022/06/29 05:03:37;;;;;;;10.10;8.27;;;;;;;14.69;88.87;93686.84;5091463;28;20024;-43
2022/06/29 05:06:03;;;;;;;10.30;8.65;;;;;;;14.90;89.07;93701.13;5091328;28;20032;-45
2022/06/29 05:08:28;;;;;;;10.18;8.25;;;;;;;15.07;88.26;93692.78;5091478;28;20020;-45
2022/06/29 05:10:54;;;;;;;10.85;8.48;;;;;;;15.13;88.91;93680.13;5091579;28;20035;-46
2022/06/29 05:13:20;;;;;;;9.80;7.55;;;;;;;15.29;88.85;93691.78;5091511;28;20508;-45
2022/06/29 05:15:46;;;;;;;9.05;8.15;;;;;;;15.53;88.80;93693.75;5091286;28;20027;-45
2022/06/29 05:18:11;;;;;;;11.13;8.05;;;;;;;15.56;88.31;93678.69;5108780;28;20585;-44
2022/06/29 05:20:37;;;;;;;10.30;8.07;;;;;;;15.89;87.16;93695.91;5111462;28;20074;-44
2022/06/29 05:23:04;;;;;;;10.70;8.13;;;;;;;16.01;86.57;93694.06;5111368;28;20027;-46
2022/06/29 05:25:31;;;;;;;9.27;8.10;;;;;;;16.18;85.90;93691.19;5111605;28;20023;-45
2022/06/29 05:27:57;;;;;;;8.45;6.95;;;;;;;16.11;86.36;93692.06;5106264;28;20027;-46
2022/06/29 05:30:22;;;;;;;8.23;7.25;;;;;;;16.27;85.61;93686.97;5090819;28;20058;-46
2022/06/29 05:32:47;;;;;;;10.05;7.75;;;;;;;16.38;85.02;93689.22;5091197;28;20088;-45
2022/06/29 05:35:13;;;;;;;9.43;7.55;;;;;;;16.55;84.73;93687.13;5091121;28;20516;-47
2022/06/29 05:37:39;;;;;;;8.93;8.02;;;;;;;16.59;84.20;93672.75;5090767;28;20529;-47
2022/06/29 05:40:05;;;;;;;23.52;11.55;;;;;;;16.76;84.29;93683.06;5091084;28;20016;-46
2022/06/29 05:42:30;;;;;;;11.80;9.23;;;;;;;16.75;83.66;93685.13;5090922;28;20062;-46
2022/06/29 05:44:56;;;;;;;9.43;8.43;;;;;;;16.85;83.38;93679.56;5090944;28;20493;-45
2022/06/29 05:47:22;;;;;;;9.70;8.65;;;;;;;16.82;83.68;93656.38;5090650;28;20102;-46
2022/06/29 05:49:47;;;;;;;12.40;8.75;;;;;;;17.02;81.89;93677.38;5090834;28;20089;-46
2022/06/29 05:52:13;;;;;;;12.52;9.18;;;;;;;17.13;81.24;93676.06;5090551;28;20032;-46
2022/06/29 05:54:38;;;;;;;11.55;8.30;;;;;;;17.24;81.66;93684.59;5090782;28;20056;-46
2022/06/29 05:57:05;;;;;;;10.20;8.68;;;;;;;17.33;81.89;93686.66;5090457;28;20542;-47
2022/06/29 05:59:31;;;;;;;9.70;7.60;;;;;;;17.42;81.88;93683.13;5090453;28;20020;-45
2022/06/29 06:01:57;;;;;;;8.10;7.18;;;;;;;17.54;81.43;93682.56;5090730;28;20106;-46
2022/06/29 06:04:22;;;;;;;8.18;7.35;;;;;;;17.61;79.84;93679.59;5090685;28;20478;-45
2022/06/29 06:06:48;;;;;;;8.90;7.50;;;;;;;17.62;79.19;93680.34;5090792;28;20561;-46
2022/06/29 06:09:13;;;;;;;9.07;8.18;;;;;;;17.69;80.45;93688.56;5090507;28;20031;-45
2022/06/29 06:11:39;;;;;;;8.45;7.45;;;;;;;17.62;80.77;93677.56;5090645;28;20028;-46
2022/06/29 06:14:04;;;;;;;12.40;8.95;;;;;;;17.68;82.45;93681.50;5090272;28;20031;-47
2022/06/29 06:16:30;;;;;;;11.90;7.25;;;;;;;17.72;81.62;93683.84;5093669;28;20076;-46
2022/06/29 06:18:55;;;;;;;9.63;7.80;;;;;;;17.91;81.84;93673.38;5110591;28;20055;-46
2022/06/29 06:21:22;;;;;;;7.55;6.85;;;;;;;18.11;80.56;93685.22;5110814;28;20047;-47
2022/06/29 06:23:48;;;;;;;9.75;8.32;;;;;;;17.96;81.21;93668.81;5109017;28;20038;-46
2022/06/29 06:26:13;;;;;;;8.25;7.22;;;;;;;18.17;80.00;93689.19;5090141;28;20496;-45
2022/06/29 06:28:40;;;;;;;8.05;6.80;;;;;;;18.32;80.43;93692.97;5090169;28;20031;-48
2022/06/29 06:31:07;;;;;;;8.77;6.95;;;;;;;18.31;80.65;93697.09;5090152;28;20580;-47
2022/06/29 06:33:32;;;;;;;7.47;6.72;;;;;;;18.34;80.81;93673.53;5090071;28;20063;-45
2022/06/29 06:35:58;;;;;;;7.45;6.75;;;;;;;18.61;79.74;93685.22;5090458;28;20063;-45
2022/06/29 06:38:23;;;;;;;8.32;6.97;;;;;;;18.83;78.37;93692.31;5090346;28;20413;-44
2022/06/29 06:43:33;;;;;;;9.90;6.97;;;;;;;18.69;78.02;93647.34;5090303;28;20046;-45
2022/06/29 06:45:58;;;;;;;9.23;6.40;;;;;;;19.02;78.66;93685.88;5090305;28;20540;-45
2022/06/29 06:48:24;;;;;;;7.07;6.43;;;;;;;19.00;78.34;93683.69;5090209;28;20060;-46
2022/06/29 06:50:49;;;;;;;7.75;6.72;;;;;;;19.17;78.62;93679.88;5090274;28;20028;-49
2022/06/29 06:53:15;;;;;;;7.72;6.93;;;;;;;19.27;79.48;93683.34;5090243;28;20035;-46
2022/06/29 06:55:40;;;;;;;10.90;8.15;;;;;;;19.39;79.64;93676.50;5089911;28;20024;-47
2022/06/29 06:58:06;;;;;;;8.75;7.82;;;;;;;19.42;79.67;93672.50;5089878;28;20024;-45
2022/06/29 07:00:31;;;;;;;8.30;7.40;;;;;;;19.71;78.00;93671.53;5089854;28;20052;-46
2022/06/29 07:02:57;;;;;;;8.77;7.35;;;;;;;19.66;79.08;93659.31;5089837;28;20024;-47
2022/06/29 07:05:23;;;;;;;7.80;7.00;;;;;;;19.66;80.46;93670.53;5089787;28;20024;-46
2022/06/29 07:07:48;;;;;;;6.15;5.60;;;;;;;19.83;76.79;93669.47;5089829;28;20440;-48
2022/06/29 07:10:14;;;;;;;6.82;5.82;;;;;;;19.87;75.96;93672.53;5089755;28;20111;-45
2022/06/29 07:12:39;;;;;;;17.73;6.57;;;;;;;20.08;74.01;93669.66;5092471;28;20080;-46
2022/06/29 07:15:05;;;;;;;5.93;5.43;;;;;;;20.27;73.09;93663.88;5093486;28;20023;-48
2022/06/29 07:17:31;;;;;;;6.78;4.93;;;;;;;20.47;69.85;93673.53;5105282;28;20111;-46
2022/06/29 07:19:57;;;;;;;5.70;5.20;;;;;;;20.77;69.70;93657.81;5112683;28;20114;-47
2022/06/29 07:22:23;;;;;;;6.15;4.85;;;;;;;21.21;66.93;93666.03;5093379;28;20089;-45
2022/06/29 07:24:50;;;;;;;9.63;4.90;;;;;;;21.51;63.85;93644.56;5093389;28;20108;-49
2022/06/29 07:27:16;;;;;;;4.85;4.43;;;;;;;22.06;64.31;93663.19;5093162;28;20024;-46
2022/06/29 07:29:41;;;;;;;5.47;4.72;;;;;;;22.73;63.69;93669.59;5092295;28;20055;-45
2022/06/29 07:32:07;;;;;;;4.50;4.10;;;;;;;23.42;60.24;93656.97;5093517;28;20024;-45
2022/06/29 07:34:33;;;;;;;4.72;4.18;;;;;;;24.02;58.65;93657.09;5093447;28;20105;-47
2022/06/29 07:36:58;;;;;;;7.13;5.20;;;;;;;24.76;58.01;93666.25;5093099;28;20024;-50
2022/06/29 07:39:24;;;;;;;6.15;4.57;;;;;;;25.58;56.47;93662.75;5093042;28;20031;-49
2022/06/29 07:41:49;;;;;;;4.70;4.00;;;;;;;26.24;52.94;93665.50;5093363;28;20702;-49
2022/06/29 07:44:14;;;;;;;4.30;3.90;;;;;;;26.94;51.70;93669.59;5092884;28;20058;-46
2022/06/29 07:46:40;;;;;;;5.32;3.90;;;;;;;27.56;48.45;93673.94;5093008;28;20028;-48
2022/06/29 07:49:05;;;;;;;4.22;3.83;;;;;;;28.12;45.92;93675.13;5092725;28;20078;-48
2022/06/29 07:51:31;;;;;;;5.72;4.05;;;;;;;28.68;45.36;93674.06;5092759;28;20118;-46
2022/06/29 07:53:56;;;;;;;7.03;3.88;;;;;;;29.27;43.83;93675.81;5092820;28;20024;-47
2022/06/29 07:56:22;;;;;;;7.00;4.53;;;;;;;29.89;43.04;93674.66;5092687;28;20055;-46
2022/06/29 07:58:47;;;;;;;5.22;4.22;;;;;;;30.33;40.62;93669.38;5093051;28;20099;-47
2022/06/29 08:01:13;;;;;;;4.10;3.75;;;;;;;30.73;41.64;93667.47;5092605;28;20408;-49
2022/06/29 08:03:38;;;;;;;5.75;4.20;;;;;;;31.02;39.13;93660.25;5092575;28;20066;-48
2022/06/29 08:06:05;;;;;;;8.02;4.00;;;;;;;31.60;38.51;93663.59;5092815;28;20020;-47
2022/06/29 08:08:31;;;;;;;5.75;3.75;;;;;;;32.17;37.79;93663.22;5092674;28;20024;-49
2022/06/29 08:10:57;;;;;;;3.75;3.42;;;;;;;32.51;38.00;93666.63;5092789;28;20070;-47
2022/06/29 08:13:22;;;;;;;8.02;3.65;;;;;;;33.16;36.36;93664.75;5092316;28;20135;-49
2022/06/29 08:15:48;;;;;;;4.45;3.60;;;;;;;33.36;35.78;93659.97;5092408;28;20024;-46
2022/06/29 08:18:14;;;;;;;5.68;3.38;;;;;;;33.66;35.41;93671.06;5091930;28;20048;-50
2022/06/29 08:20:40;;;;;;;6.07;3.97;;;;;;;34.12;35.23;93662.25;5092593;28;20051;-46
2022/06/29 08:23:06;;;;;;;4.18;3.78;;;;;;;33.71;35.04;93666.84;5091984;28;20531;-46
2022/06/29 08:25:31;;;;;;;4.30;3.88;;;;;;;32.76;36.79;93654.16;5092225;28;20034;-47
2022/06/29 08:27:57;;;;;;;3.75;3.45;;;;;;;32.08;38.44;93650.19;5092100;28;20027;-47
2022/06/29 08:30:23;;;;;;;5.85;3.47;;;;;;;32.36;39.13;93655.66;5091114;28;20036;-47
2022/06/29 08:32:49;;;;;;;4.22;3.92;;;;;;;31.78;39.06;93653.22;5092024;28;20046;-49
2022/06/29 08:35:16;;;;;;;4.38;3.72;;;;;;;31.46;40.48;93651.91;5091942;28;20035;-48
2022/06/29 08:37:42;;;;;;;5.15;3.53;;;;;;;31.99;40.09;93642.91;5091980;28;20024;-46
2022/06/29 08:40:10;;;;;;;8.00;3.55;;;;;;;32.56;38.97;93636.72;5092189;28;20026;-46
2022/06/29 08:42:36;;;;;;;5.30;4.80;;;;;;;32.68;36.89;93651.16;5092167;28;20028;-51
2022/06/29 08:45:02;;;;;;;4.07;3.75;;;;;;;32.36;38.53;93652.78;5091814;28;20034;-47
2022/06/29 08:47:27;;;;;;;6.95;4.00;;;;;;;32.11;38.88;93660.25;5090553;28;20020;-49
2022/06/29 08:49:53;;;;;;;4.45;4.05;;;;;;;32.03;40.68;93660.81;5091910;28;20425;-47
2022/06/29 08:52:18;;;;;;;4.30;3.95;;;;;;;32.20;38.33;93658.97;5090796;28;20052;-48
2022/06/29 08:54:46;;;;;;;4.40;3.88;;;;;;;31.76;39.31;93646.75;5091582;28;20100;-49
2022/06/29 08:57:13;;;;;;;4.78;4.13;;;;;;;31.53;39.29;93667.75;5090681;28;20028;-48
2022/06/29 08:59:38;;;;;;;4.70;3.92;;;;;;;31.69;39.41;93660.19;5090356;28;20034;-50
2022/06/29 09:02:04;;;;;;;4.47;4.07;;;;;;;31.67;39.71;93659.44;5091700;28;20103;-47
2022/06/29 09:04:30;;;;;;;4.18;3.78;;;;;;;31.77;40.29;93657.47;5091455;28;20032;-49
2022/06/29 09:06:56;;;;;;;7.82;3.70;;;;;;;32.25;40.02;93654.75;5091680;28;20460;-46
2022/06/29 09:09:23;;;;;;;8.02;3.80;;;;;;;33.01;38.02;93663.13;5091227;28;20486;-49
2022/06/29 09:11:51;;;;;;;3.85;3.35;;;;;;;33.69;37.03;93660.38;5091347;28;20035;-47
2022/06/29 09:14:21;;;;;;;3.87;2.70;;;;;;;33.35;35.30;93658.53;5107444;28;20060;-46
2022/06/29 09:17:03;;;;;;;5.53;3.40;;;;;;;33.36;35.53;93650.66;5111261;28;20475;-48
2022/06/29 09:19:34;;;;;;;4.95;2.97;;;;;;;33.94;34.65;93665.66;5111365;28;20116;-48
2022/06/29 09:22:00;;;;;;;12.20;3.00;;;;;;;34.10;33.63;93662.97;5111508;28;20039;-49
2022/06/29 09:24:28;;;;;;;4.68;3.83;;;;;;;34.31;33.34;93658.13;5111407;28;20106;-47
2022/06/29 09:26:58;;;;;;;3.17;2.90;;;;;;;34.86;33.79;93660.00;5110509;28;20028;-52
2022/06/29 09:29:24;;;;;;;6.03;3.92;;;;;;;35.38;32.43;93662.47;5111578;28;20023;-48
2022/06/29 09:32:08;;;;;;;4.53;3.03;;;;;;;35.62;30.67;93661.84;5111641;28;20039;-48
2022/06/29 09:34:37;;;;;;;2.88;2.67;;;;;;;35.78;30.97;93662.63;5110970;28;20027;-48
2022/06/29 09:37:06;;;;;;;3.40;3.10;;;;;;;34.65;31.98;93660.59;5111445;28;20031;-47
2022/06/29 09:39:35;;;;;;;5.25;2.75;;;;;;;34.64;32.96;93659.84;5111414;28;20038;-48
2022/06/29 09:42:02;;;;;;;6.15;3.00;;;;;;;34.89;30.88;93652.84;5111444;28;20028;-49
2022/06/29 09:44:28;;;;;;;9.75;2.30;;;;;;;35.45;30.75;93663.19;5111031;28;20035;-51
2022/06/29 09:46:56;;;;;;;9.68;2.38;;;;;;;35.58;28.46;93648.22;5109972;28;20034;-47
2022/06/29 09:49:27;;;;;;;2.03;1.50;;;;;;;36.35;28.60;93648.34;5111215;28;20038;-48
2022/06/29 09:51:57;;;;;;;5.05;1.50;;;;;;;36.44;23.44;93649.81;5111298;28;20032;-48
2022/06/29 09:54:47;;;;;;;2.67;1.35;;;;;;;36.28;22.49;93649.78;5111278;28;20103;-47
2022/06/29 09:57:13;;;;;;;10.98;2.35;;;;;;;36.48;21.47;93649.81;5110012;28;20031;-47
2022/06/29 10:02:38;;;;;;;2.07;1.20;;;;;;;36.93;21.16;93645.47;5111423;28;20047;-46
2022/06/29 10:05:12;;;;;;;1.77;1.30;;;;;;;36.93;21.49;93644.75;5110837;27;20440;-48
2022/06/29 10:07:42;;;;;;;1.75;1.30;;;;;;;36.59;21.76;93636.88;5111065;28;20028;-47
2022/06/29 10:10:09;;;;;;;1.35;1.25;;;;;;;35.35;21.55;93643.78;5097692;28;20024;-47
2022/06/29 10:15:56;;;;;;;1.85;1.75;;;;;;;32.49;26.70;93646.59;5090676;28;20051;-46
2022/06/29 10:18:31;;;;;;;4.43;2.17;;;;;;;32.89;29.59;93644.34;5109192;28;20055;-51
2022/06/29 10:20:57;;;;;;;1.52;1.42;;;;;;;33.73;25.64;93643.22;5110942;28;20054;-47
2022/06/29 10:23:45;;;;;;;3.05;1.58;;;;;;;33.77;25.81;93644.00;5109470;28;20028;-47
2022/06/29 10:26:32;;;;;;;2.38;1.60;;;;;;;34.20;25.61;93637.25;5110990;28;20023;-46
2022/06/29 10:29:09;;;;;;;4.23;1.97;;;;;;;34.43;25.98;93646.78;5110879;28;20102;-47
2022/06/29 10:31:50;;;;;;;4.13;1.50;;;;;;;35.60;24.88;93639.59;5110449;28;20465;-47
2022/06/29 10:37:15;;;;;;;3.95;1.95;;;;;;;36.34;22.54;93632.56;5110801;28;20492;-48
2022/06/29 10:39:49;;;;;;;2.85;1.35;;;;;;;37.09;20.21;93628.19;5110802;28;20115;-48
2022/06/29 10:45:17;;;;;;;3.47;1.63;;;;;;;38.10;21.27;93627.72;5110667;28;20081;-48
2022/06/29 10:48:07;;;;;;;2.03;1.60;;;;;;;39.02;20.80;93626.25;5114814;28;20032;-46
2022/06/29 10:50:38;;;;;;;2.63;1.52;;;;;;;39.78;19.48;93632.63;5107135;28;20122;-48
2022/06/29 10:53:06;;;;;;;5.47;1.50;;;;;;;40.10;19.38;93629.31;5114683;28;20024;-48
2022/06/29 10:55:33;;;;;;;3.78;1.63;;;;;;;40.38;19.26;93631.03;5114678;28;20102;-47
2022/06/29 10:57:59;;;;;;;12.05;2.38;;;;;;;39.85;21.42;93628.19;5114581;28;20415;-47
2022/06/29 11:00:27;;;;;;;2.20;2.00;;;;;;;39.97;20.20;93622.22;5114247;28;20027;-48
2022/06/29 11:02:53;;;;;;;4.70;1.80;;;;;;;38.31;21.79;93631.22;5113005;28;20030;-47
2022/06/29 11:05:19;;;;;;;3.00;2.00;;;;;;;37.26;22.99;93605.78;5110153;28;20040;-49
2022/06/29 11:13:22;;;;;;;7.78;2.55;;;;;;;33.45;29.35;93627.16;5093893;28;20460;-49
2022/06/29 11:15:53;;;;;;;3.00;2.00;;;;;;;33.00;29.46;93619.47;5093833;28;20027;-46
2022/06/29 11:18:29;;;;;;;4.18;2.13;;;;;;;32.85;34.79;93618.53;5112239;28;20437;-49
2022/06/29 11:21:02;;;;;;;2.25;2.05;;;;;;;33.38;33.92;93617.06;5114118;27;20031;-47
2022/06/29 11:23:30;;;;;;;2.63;2.25;;;;;;;33.61;33.20;93618.75;5114173;28;20035;-50
2022/06/29 11:25:56;;;;;;;3.47;2.35;;;;;;;33.48;31.35;93617.16;5113694;27;20027;-47
2022/06/29 11:28:25;;;;;;;3.53;1.98;;;;;;;33.81;32.81;93608.97;5113633;28;20503;-48
2022/06/29 11:30:59;;;;;;;4.05;2.10;;;;;;;33.23;32.15;93614.72;5113993;28;20027;-48
2022/06/29 11:33:30;;;;;;;2.15;1.92;;;;;;;32.80;32.57;93608.47;5113867;28;20034;-46
2022/06/29 11:35:56;;;;;;;2.33;2.13;;;;;;;32.28;33.25;93601.97;5113834;28;20472;-46
2022/06/29 11:38:28;;;;;;;2.00;1.90;;;;;;;31.53;32.00;93607.81;5113840;28;20031;-48
2022/06/29 11:40:54;;;;;;;3.22;2.42;;;;;;;31.17;33.52;93599.25;5113508;28;20027;-48
2022/06/29 11:43:21;;;;;;;2.72;2.53;;;;;;;31.08;34.17;93597.66;5113421;28;20147;-46
2022/06/29 11:45:51;;;;;;;2.80;2.38;;;;;;;30.71;36.41;93590.44;5113323;28;20028;-46
2022/06/29 11:48:18;;;;;;;3.80;2.35;;;;;;;31.04;36.87;93595.44;5113506;28;20035;-47
2022/06/29 11:50:59;;;;;;;2.78;2.58;;;;;;;31.36;35.29;93604.59;5113305;28;20027;-52
2022/06/29 11:53:54;;;;;;;5.43;2.20;;;;;;;31.15;35.00;93594.22;5113292;28;20505;-46